createdAt,value
2022-08-03T00:00:24.100Z,1.80
2022-08-03T00:01:16.255Z,0.95
2022-08-03T00:01:47.583Z,1.20
2022-08-03T00:02:19.083Z,1.23
2022-08-03T00:02:50.485Z,1.08
2022-08-03T00:03:22.394Z,0.97
2022-08-03T00:03:53.773Z,1.00
2022-08-03T00:04:34.338Z,0.75
2022-08-03T00:05:08.346Z,0.80
2022-08-03T00:05:40.088Z,1.20
2022-08-03T00:06:36.487Z,1.52
2022-08-03T00:07:08.535Z,1.45
2022-08-03T00:07:41.068Z,1.55
2022-08-03T00:08:12.563Z,1.23
2022-08-03T00:08:43.934Z,1.02
2022-08-03T00:09:15.269Z,1.37
2022-08-03T00:09:46.640Z,1.13
2022-08-03T00:10:17.964Z,0.90
2022-08-03T00:10:49.631Z,1.25
2022-08-03T00:11:40.859Z,1.63
2022-08-03T00:12:12.308Z,1.10
2022-08-03T00:12:43.793Z,1.17
2022-08-03T00:13:15.304Z,1.63
2022-08-03T00:13:46.938Z,1.40
2022-08-03T00:14:18.329Z,1.40
2022-08-03T00:14:49.656Z,0.63
2022-08-03T00:15:20.995Z,0.77
2022-08-03T00:17:00.612Z,1.42
2022-08-03T00:17:53.232Z,1.67
2022-08-03T00:18:23.257Z,1.35
2022-08-03T00:18:54.646Z,1.40
2022-08-03T00:19:26.108Z,1.15
2022-08-03T00:19:57.428Z,1.55
2022-08-03T00:20:28.763Z,1.15
2022-08-03T00:21:00.100Z,1.80
2022-08-03T00:21:31.680Z,1.27
2022-08-03T00:22:21.419Z,1.20
2022-08-03T00:22:55.450Z,1.05
2022-08-03T00:23:29.407Z,1.65
2022-08-03T00:24:18.187Z,1.35
2022-08-03T00:24:49.552Z,0.93
2022-08-03T00:25:20.991Z,1.20
2022-08-03T00:25:52.442Z,1.58
2022-08-03T00:26:23.849Z,0.70
2022-08-03T00:26:55.227Z,0.90
2022-08-03T00:27:26.603Z,0.90
2022-08-03T00:27:58.198Z,1.40
2022-08-03T00:28:29.638Z,1.48
2022-08-03T00:29:01.023Z,1.55
2022-08-03T00:30:40.399Z,1.10
2022-08-03T00:31:13.693Z,1.30
2022-08-03T00:31:52.115Z,1.40
2022-08-03T00:32:24.830Z,1.40
2022-08-03T00:32:56.698Z,1.50
2022-08-03T00:33:28.103Z,1.98
2022-08-03T00:34:29.816Z,1.45
2022-08-03T00:35:11.334Z,1.10
2022-08-03T00:35:51.023Z,1.10
2022-08-03T00:36:22.637Z,2.00
2022-08-03T00:36:54.011Z,1.08
2022-08-03T00:37:41.473Z,1.40
2022-08-03T00:38:13.364Z,1.73
2022-08-03T00:38:44.755Z,1.42
2022-08-03T00:39:16.135Z,1.53
2022-08-03T00:39:48.089Z,0.90
2022-08-03T00:40:20.744Z,1.20
2022-08-03T00:40:52.079Z,1.40
2022-08-03T00:41:23.428Z,1.60
2022-08-03T00:41:54.765Z,1.50
2022-08-03T00:42:27.392Z,0.90
2022-08-03T00:43:02.759Z,1.60
2022-08-03T00:43:34.244Z,1.35
2022-08-03T00:44:05.671Z,1.40
2022-08-03T00:44:41.952Z,1.77
2022-08-03T00:45:13.388Z,1.63
2022-08-03T00:45:44.769Z,1.88
2022-08-03T00:46:20.990Z,1.45
2022-08-03T00:46:53.193Z,1.80
2022-08-03T00:47:43.067Z,1.23
2022-08-03T00:48:29.422Z,1.38
2022-08-03T00:49:04.467Z,1.45
2022-08-03T00:49:37.311Z,1.23
2022-08-03T00:50:09.029Z,2.03
2022-08-03T00:52:10.991Z,1.77
2022-08-03T00:52:42.622Z,1.45
2022-08-03T00:53:14.720Z,0.98
2022-08-03T00:54:04.811Z,1.27
2022-08-03T00:54:37.792Z,1.02
2022-08-03T00:55:10.445Z,1.52
2022-08-03T00:55:42.176Z,1.20
2022-08-03T00:56:17.485Z,1.65
2022-08-03T00:56:59.618Z,1.25
2022-08-03T00:57:33.247Z,1.03
2022-08-03T00:58:06.603Z,1.70
2022-08-03T00:58:37.979Z,1.33
2022-08-03T00:59:10.475Z,1.38
2022-08-03T00:59:41.879Z,0.85
2022-08-03T01:00:16.312Z,1.60
2022-08-03T01:00:47.785Z,1.75
2022-08-03T01:01:19.279Z,1.52
2022-08-03T01:01:50.820Z,1.20
2022-08-03T01:02:22.334Z,1.88
2022-08-03T01:02:54.324Z,1.27
2022-08-03T01:03:25.700Z,0.88
2022-08-03T01:03:57.056Z,1.10
2022-08-03T01:04:46.964Z,1.50
2022-08-03T01:05:19.535Z,1.63
2022-08-03T01:06:27.167Z,1.17
2022-08-03T01:07:20.969Z,1.35
2022-08-03T01:08:29.406Z,1.33
2022-08-03T01:09:11.877Z,1.70
2022-08-03T01:10:01.738Z,1.23
2022-08-03T01:10:57.652Z,1.10
2022-08-03T01:12:00.742Z,1.33
2022-08-03T01:12:39.328Z,1.83
2022-08-03T01:13:13.958Z,1.40
2022-08-03T01:14:20.955Z,1.38
2022-08-03T01:15:00.183Z,0.90
2022-08-03T01:15:50.989Z,1.20
2022-08-03T01:16:35.856Z,1.60
2022-08-03T01:17:17.876Z,1.10
2022-08-03T01:17:58.007Z,0.95
2022-08-03T01:18:50.692Z,1.10
2022-08-03T01:19:42.791Z,1.40
2022-08-03T01:20:14.968Z,1.05
2022-08-03T01:20:49.628Z,1.55
2022-08-03T01:21:27.611Z,1.30
2022-08-03T01:22:37.145Z,1.40
2022-08-03T01:23:32.904Z,1.27
2022-08-03T01:25:43.015Z,1.52
2022-08-03T01:26:42.491Z,1.15
2022-08-03T01:27:49.573Z,1.17
2022-08-03T01:29:03.412Z,1.75
2022-08-03T01:29:49.089Z,1.10
2022-08-03T01:30:21.474Z,1.38
2022-08-03T01:31:13.169Z,1.42
2022-08-03T01:32:58.802Z,1.45
2022-08-03T01:33:22.030Z,1.50
2022-08-03T01:34:00.094Z,1.83
2022-08-03T01:34:36.511Z,1.73
2022-08-03T01:35:26.099Z,1.67
2022-08-03T01:36:01.942Z,0.90
2022-08-03T01:36:37.978Z,1.35
2022-08-03T01:37:12.175Z,1.77
2022-08-03T01:37:57.876Z,2.03
2022-08-03T01:38:35.719Z,1.88
2022-08-03T01:39:11.458Z,1.85
2022-08-03T01:39:44.255Z,1.42
2022-08-03T01:40:17.387Z,1.67
2022-08-03T01:40:53.857Z,1.63
2022-08-03T01:41:31.028Z,1.80
2022-08-03T01:42:06.208Z,1.83
2022-08-03T01:42:39.848Z,1.02
2022-08-03T01:44:26.193Z,1.73
2022-08-03T01:44:29.357Z,2.75
2022-08-03T01:45:53.923Z,2.00
2022-08-03T01:46:26.459Z,2.08
2022-08-03T01:47:00.477Z,2.38
2022-08-03T01:47:32.928Z,2.22
2022-08-03T01:48:05.483Z,2.47
2022-08-03T01:48:39.658Z,1.90
2022-08-03T01:49:13.260Z,2.22
2022-08-03T01:49:45.523Z,1.77
2022-08-03T01:50:22.426Z,2.17
2022-08-03T01:50:56.548Z,2.10
2022-08-03T01:51:58.384Z,2.28
2022-08-03T01:52:21.547Z,2.60
2022-08-03T01:52:54.679Z,1.73
2022-08-03T01:53:27.526Z,1.65
2022-08-03T01:54:00.509Z,2.80
2022-08-03T01:54:40.942Z,1.23
2022-08-03T01:55:32.034Z,1.20
2022-08-03T01:56:24.590Z,1.83
2022-08-03T01:56:58.914Z,2.00
2022-08-03T01:57:30.902Z,1.50
2022-08-03T01:58:05.300Z,1.80
2022-08-03T01:58:40.680Z,1.83
2022-08-03T01:59:14.460Z,1.88
2022-08-03T01:59:48.624Z,2.72
2022-08-03T02:00:20.220Z,1.77
2022-08-03T02:00:53.065Z,1.60
2022-08-03T02:01:25.907Z,1.60
2022-08-03T02:02:37.327Z,1.52
2022-08-03T02:03:12.091Z,1.55
2022-08-03T02:04:02.768Z,1.77
2022-08-03T02:04:35.782Z,1.40
2022-08-03T02:05:10.739Z,1.45
2022-08-03T02:05:46.273Z,1.50
2022-08-03T02:06:59.814Z,1.40
2022-08-03T02:07:12.691Z,2.13
2022-08-03T02:07:46.267Z,2.17
2022-08-03T02:08:19.056Z,1.90
2022-08-03T02:08:52.560Z,2.47
2022-08-03T02:09:26.287Z,2.00
2022-08-03T02:09:59.020Z,2.85
2022-08-03T02:10:34.804Z,2.13
2022-08-03T02:11:07.972Z,2.17
2022-08-03T02:11:58.079Z,1.65
2022-08-03T02:12:32.369Z,2.00
2022-08-03T02:13:06.567Z,2.03
2022-08-03T02:13:38.480Z,1.70
2022-08-03T02:14:10.957Z,1.52
2022-08-03T02:14:45.587Z,1.77
2022-08-03T02:15:19.180Z,1.90
2022-08-03T02:15:52.801Z,2.03
2022-08-03T02:16:24.613Z,2.20
2022-08-03T02:16:57.829Z,2.53
2022-08-03T02:17:38.594Z,2.40
2022-08-03T02:18:12.833Z,1.92
2022-08-03T02:18:47.647Z,2.33
2022-08-03T02:19:20.497Z,1.90
2022-08-03T02:19:52.379Z,1.65
2022-08-03T02:20:24.960Z,2.08
2022-08-03T02:20:57.615Z,2.33
2022-08-03T02:21:56.374Z,1.85
2022-08-03T02:22:24.936Z,2.45
2022-08-03T02:22:56.268Z,2.47
2022-08-03T02:23:27.757Z,1.80
2022-08-03T02:23:59.397Z,2.28
2022-08-03T02:24:51.212Z,2.03
2022-08-03T02:25:23.520Z,2.33
2022-08-03T02:25:59.957Z,2.10
2022-08-03T02:26:37.919Z,2.15
2022-08-03T02:27:22.152Z,2.30
2022-08-03T02:28:01.655Z,2.80
2022-08-03T02:28:37.163Z,1.58
2022-08-03T02:29:15.208Z,1.90
2022-08-03T02:29:51.114Z,2.83
2022-08-03T02:30:29.687Z,2.00
2022-08-03T02:31:05.008Z,2.35
2022-08-03T02:31:37.692Z,1.77
2022-08-03T02:32:14.280Z,2.00
2022-08-03T02:32:51.620Z,1.90
2022-08-03T02:33:34.419Z,2.25
2022-08-03T02:34:14.283Z,2.30
2022-08-03T02:34:50.397Z,1.67
2022-08-03T02:35:43.786Z,1.75
2022-08-03T02:36:19.063Z,2.35
2022-08-03T02:36:53.576Z,2.28
2022-08-03T02:37:30.902Z,2.08
2022-08-03T02:38:04.975Z,2.23
2022-08-03T02:38:40.945Z,1.70
2022-08-03T02:39:33.239Z,2.00
2022-08-03T02:40:07.708Z,2.13
2022-08-03T02:40:41.812Z,2.03
2022-08-03T02:41:20.991Z,1.80
2022-08-03T02:42:02.056Z,1.50
2022-08-03T02:42:36.519Z,1.85
2022-08-03T02:43:11.879Z,2.63
2022-08-03T02:44:06.084Z,2.08
2022-08-03T02:44:40.248Z,1.93
2022-08-03T02:45:13.916Z,2.28
2022-08-03T02:46:07.956Z,2.40
2022-08-03T02:47:01.167Z,2.38
2022-08-03T02:47:53.881Z,2.22
2022-08-03T02:48:29.124Z,2.15
2022-08-03T02:49:49.472Z,2.00
2022-08-03T02:49:57.177Z,2.08
2022-08-03T02:51:21.279Z,1.80
2022-08-03T02:51:54.808Z,2.00
2022-08-03T02:52:28.763Z,1.75
2022-08-03T02:53:02.751Z,1.40
2022-08-03T02:53:36.226Z,2.13
2022-08-03T02:54:09.482Z,1.95
2022-08-03T02:54:41.556Z,2.38
2022-08-03T02:55:16.008Z,1.70
2022-08-03T02:55:49.124Z,2.13
2022-08-03T02:56:22.349Z,2.50
2022-08-03T02:56:57.462Z,2.47
2022-08-03T02:57:31.163Z,2.40
2022-08-03T02:58:04.388Z,1.60
2022-08-03T02:58:37.568Z,1.90
2022-08-03T02:59:11.928Z,2.30
2022-08-03T02:59:44.480Z,2.70
2022-08-03T03:00:19.652Z,2.13
2022-08-03T03:01:01.751Z,2.13
2022-08-03T03:01:33.912Z,2.28
2022-08-03T03:02:05.920Z,2.65
2022-08-03T03:03:31.849Z,2.50
2022-08-03T03:04:10.719Z,1.80
2022-08-03T03:05:52.794Z,2.63
2022-08-03T03:05:53.495Z,2.85
2022-08-03T03:07:17.921Z,2.17
2022-08-03T03:07:51.853Z,3.05
2022-08-03T03:08:26.049Z,2.60
2022-08-03T03:09:00.667Z,2.70
2022-08-03T03:09:41.635Z,2.15
2022-08-03T03:10:14.571Z,2.17
2022-08-03T03:10:46.876Z,2.28
2022-08-03T03:11:20.835Z,2.83
2022-08-03T03:11:53.782Z,2.30
2022-08-03T03:12:26.570Z,2.55
2022-08-03T03:12:59.477Z,2.38
2022-08-03T03:13:32.328Z,2.35
2022-08-03T03:14:04.032Z,2.47
2022-08-03T03:14:37.232Z,2.65
2022-08-03T03:15:08.986Z,2.50
2022-08-03T03:15:42.020Z,2.40
2022-08-03T03:16:15.204Z,2.20
2022-08-03T03:16:50.621Z,2.65
2022-08-03T03:17:24.519Z,2.85
2022-08-03T03:18:47.855Z,3.13
2022-08-03T03:19:20.484Z,4.00
2022-08-03T03:20:10.598Z,2.58
2022-08-03T03:21:00.750Z,2.63
2022-08-03T03:21:33.702Z,1.98
2022-08-03T03:22:07.367Z,2.60
2022-08-03T03:22:41.036Z,2.97
2022-08-03T03:23:17.710Z,2.67
2022-08-03T03:23:49.418Z,2.40
2022-08-03T03:24:21.179Z,2.42
2022-08-03T03:24:54.648Z,2.20
2022-08-03T03:25:26.364Z,2.88
2022-08-03T03:25:58.904Z,2.90
2022-08-03T03:26:30.659Z,2.55
2022-08-03T03:27:03.463Z,2.05
2022-08-03T03:27:35.239Z,2.23
2022-08-03T03:28:06.875Z,2.70
2022-08-03T03:28:38.606Z,2.58
2022-08-03T03:29:10.012Z,2.33
2022-08-03T03:29:42.163Z,2.88
2022-08-03T03:30:13.705Z,2.30
2022-08-03T03:30:45.242Z,3.35
2022-08-03T03:31:24.459Z,2.45
2022-08-03T03:31:57.299Z,2.70
2022-08-03T03:32:29.508Z,3.28
2022-08-03T03:33:01.023Z,3.23
2022-08-03T03:33:34.313Z,1.95
2022-08-03T03:34:05.735Z,3.03
2022-08-03T03:34:38.741Z,3.08
2022-08-03T03:35:10.680Z,3.17
2022-08-03T03:36:01.151Z,2.17
2022-08-03T03:36:32.552Z,2.88
2022-08-03T03:37:05.004Z,2.85
2022-08-03T03:37:36.333Z,2.38
2022-08-03T03:38:07.715Z,2.92
2022-08-03T03:38:39.169Z,2.57
2022-08-03T03:39:16.123Z,2.33
2022-08-03T03:39:47.751Z,2.42
2022-08-03T03:40:19.465Z,3.88
2022-08-03T03:40:51.236Z,2.85
2022-08-03T03:41:22.606Z,3.03
2022-08-03T03:41:54.283Z,3.10
2022-08-03T03:42:26.011Z,2.78
2022-08-03T03:43:15.933Z,2.70
2022-08-03T03:44:05.691Z,2.15
2022-08-03T03:44:37.132Z,2.20
2022-08-03T03:45:27.953Z,2.90
2022-08-03T03:46:00.579Z,2.85
2022-08-03T03:46:32.192Z,2.78
2022-08-03T03:47:03.780Z,2.67
2022-08-03T03:47:54.515Z,1.88
2022-08-03T03:48:26.568Z,2.78
2022-08-03T03:48:58.159Z,2.80
2022-08-03T03:49:31.004Z,2.30
2022-08-03T03:50:04.198Z,2.15
2022-08-03T03:50:57.188Z,2.63
2022-08-03T03:51:28.597Z,2.55
2022-08-03T03:51:59.988Z,2.03
2022-08-03T03:52:34.443Z,2.50
2022-08-03T03:53:10.246Z,2.55
2022-08-03T03:53:53.598Z,2.63
2022-08-03T03:54:25.551Z,2.30
2022-08-03T03:56:11.008Z,2.67
2022-08-03T03:57:00.910Z,2.42
2022-08-03T03:57:33.889Z,2.67
2022-08-03T03:58:05.774Z,2.03
2022-08-03T03:58:37.107Z,2.72
2022-08-03T03:59:08.505Z,2.65
2022-08-03T03:59:41.524Z,2.50
2022-08-03T04:00:14.619Z,1.90
2022-08-03T04:00:46.210Z,2.38
2022-08-03T04:01:18.050Z,3.17
2022-08-03T04:02:39.227Z,2.67
2022-08-03T04:03:12.068Z,1.73
2022-08-03T04:03:43.726Z,2.58
2022-08-03T04:04:33.388Z,1.95
2022-08-03T04:05:23.988Z,2.75
2022-08-03T04:06:14.363Z,3.50
2022-08-03T04:07:04.551Z,3.15
2022-08-03T04:08:14.133Z,2.20
2022-08-03T04:09:03.945Z,2.55
2022-08-03T04:10:58.910Z,2.38
2022-08-03T04:11:37.591Z,2.53
2022-08-03T04:12:09.157Z,3.83
2022-08-03T04:12:50.520Z,3.13
2022-08-03T04:13:22.924Z,3.42
2022-08-03T04:13:57.081Z,3.08
2022-08-03T04:14:35.880Z,2.83
2022-08-03T04:15:08.872Z,3.10
2022-08-03T04:15:42.024Z,3.10
2022-08-03T04:16:17.904Z,2.40
2022-08-03T04:17:09.511Z,2.88
2022-08-03T04:17:42.787Z,2.80
2022-08-03T04:18:16.033Z,2.20
2022-08-03T04:18:52.393Z,2.67
2022-08-03T04:19:29.367Z,3.40
2022-08-03T04:20:03.558Z,3.13
2022-08-03T04:21:30.020Z,3.17
2022-08-03T04:22:09.614Z,3.70
2022-08-03T04:22:42.029Z,3.33
2022-08-03T04:23:15.595Z,2.80
2022-08-03T04:23:50.999Z,3.30
2022-08-03T04:24:26.577Z,2.97
2022-08-03T04:25:27.720Z,3.55
2022-08-03T04:26:01.399Z,4.47
2022-08-03T04:26:36.164Z,3.22
2022-08-03T04:27:13.322Z,3.40
2022-08-03T04:28:29.790Z,3.55
2022-08-03T04:28:43.323Z,3.72
2022-08-03T04:29:15.812Z,2.75
2022-08-03T04:29:51.575Z,2.28
2022-08-03T04:30:23.243Z,2.37
2022-08-03T04:30:56.978Z,2.75
2022-08-03T04:31:29.990Z,3.13
2022-08-03T04:32:03.145Z,3.10
2022-08-03T04:32:36.982Z,2.50
2022-08-03T04:33:08.388Z,3.08
2022-08-03T04:33:42.608Z,2.75
2022-08-03T04:34:14.011Z,2.60
2022-08-03T04:34:45.820Z,3.00
2022-08-03T04:35:18.664Z,2.10
2022-08-03T04:36:13.096Z,2.27
2022-08-03T04:36:49.841Z,3.13
2022-08-03T04:37:43.275Z,3.03
2022-08-03T04:38:18.412Z,2.33
2022-08-03T04:39:13.391Z,2.17
2022-08-03T04:40:05.937Z,2.70
2022-08-03T04:40:41.110Z,2.50
2022-08-03T04:41:13.198Z,2.63
2022-08-03T04:42:07.783Z,3.33
2022-08-03T04:42:39.501Z,2.03
2022-08-03T04:43:14.942Z,3.10
2022-08-03T04:43:49.603Z,3.25
2022-08-03T04:44:28.287Z,2.60
2022-08-03T04:45:02.000Z,3.40
2022-08-03T04:45:34.167Z,2.75
2022-08-03T04:46:08.146Z,2.67
2022-08-03T04:46:39.973Z,3.45
2022-08-03T04:47:18.226Z,3.03
2022-08-03T04:47:50.532Z,3.97
2022-08-03T04:48:22.382Z,2.85
2022-08-03T04:48:54.770Z,3.10
2022-08-03T04:49:27.162Z,3.30
2022-08-03T04:50:00.889Z,3.33
2022-08-03T04:50:32.679Z,3.53
2022-08-03T04:51:04.470Z,2.72
2022-08-03T04:51:38.963Z,2.58
2022-08-03T04:52:11.013Z,2.53
2022-08-03T04:52:42.953Z,2.00
2022-08-03T04:53:14.375Z,2.95
2022-08-03T04:53:45.877Z,2.60
2022-08-03T04:55:29.798Z,2.20
2022-08-03T04:56:05.698Z,3.42
2022-08-03T04:56:40.080Z,2.17
2022-08-03T04:57:30.173Z,2.97
2022-08-03T04:58:02.764Z,2.35
2022-08-03T04:58:34.164Z,2.20
2022-08-03T04:59:05.579Z,2.83
2022-08-03T04:59:39.227Z,3.80
2022-08-03T05:00:50.107Z,2.58
2022-08-03T05:01:22.488Z,2.77
2022-08-03T05:02:12.585Z,2.90
2022-08-03T05:02:43.987Z,2.72
2022-08-03T05:03:23.828Z,3.13
2022-08-03T05:03:55.851Z,2.50
2022-08-03T05:04:27.303Z,2.60
2022-08-03T05:04:59.142Z,2.22
2022-08-03T05:05:48.649Z,3.33
2022-08-03T05:06:47.860Z,2.17
2022-08-03T05:07:24.867Z,2.17
2022-08-03T05:07:56.691Z,2.60
2022-08-03T05:08:28.459Z,2.80
2022-08-03T05:08:59.860Z,2.47
2022-08-03T05:09:49.623Z,3.08
2022-08-03T05:10:22.446Z,3.10
2022-08-03T05:10:53.818Z,3.42
2022-08-03T05:11:25.213Z,2.42
2022-08-03T05:12:15.725Z,2.90
2022-08-03T05:12:48.920Z,3.13
2022-08-03T05:13:20.261Z,2.92
2022-08-03T05:13:51.687Z,2.73
2022-08-03T05:14:28.074Z,2.40
2022-08-03T05:15:00.522Z,2.45
2022-08-03T05:15:31.876Z,2.67
2022-08-03T05:16:03.336Z,3.92
2022-08-03T05:16:34.733Z,2.80
2022-08-03T05:17:06.280Z,3.10
2022-08-03T05:17:37.643Z,2.95
2022-08-03T05:18:27.475Z,2.60
2022-08-03T05:18:58.808Z,3.13
2022-08-03T05:20:38.383Z,3.45
2022-08-03T05:21:10.636Z,3.22
2022-08-03T05:21:52.461Z,2.90
2022-08-03T05:22:43.652Z,2.53
2022-08-03T05:23:15.280Z,2.67
2022-08-03T05:23:46.614Z,2.67
2022-08-03T05:24:17.999Z,2.50
2022-08-03T05:24:49.463Z,3.75
2022-08-03T05:25:23.348Z,2.25
2022-08-03T05:25:58.542Z,2.33
2022-08-03T05:26:30.067Z,2.70
2022-08-03T05:27:01.433Z,2.63
2022-08-03T05:27:51.563Z,3.28
2022-08-03T05:28:23.000Z,3.00
2022-08-03T05:29:43.517Z,3.55
2022-08-03T05:30:31.136Z,2.80
2022-08-03T05:31:25.471Z,2.67
2022-08-03T05:31:56.836Z,1.98
2022-08-03T05:32:28.192Z,4.40
2022-08-03T05:32:59.953Z,2.65
2022-08-03T05:33:49.912Z,3.25
2022-08-03T05:34:21.254Z,3.17
2022-08-03T05:34:52.739Z,3.92
2022-08-03T05:35:57.187Z,3.03
2022-08-03T05:36:16.808Z,3.38
2022-08-03T05:37:07.349Z,3.15
2022-08-03T05:37:39.256Z,2.55
2022-08-03T05:38:28.617Z,3.38
2022-08-03T05:39:02.814Z,3.63
2022-08-03T05:39:34.603Z,2.92
2022-08-03T05:41:20.037Z,3.15
2022-08-03T05:41:48.255Z,3.00
2022-08-03T05:42:38.256Z,4.22
2022-08-03T05:43:09.605Z,3.97
2022-08-03T05:43:41.028Z,4.68
2022-08-03T05:44:12.375Z,3.53
2022-08-03T05:44:43.718Z,2.88
2022-08-03T05:45:15.175Z,3.33
2022-08-03T05:45:46.479Z,3.63
2022-08-03T05:46:37.907Z,2.72
2022-08-03T05:47:09.500Z,2.65
2022-08-03T05:47:46.480Z,3.30
2022-08-03T05:49:06.582Z,3.15
2022-08-03T05:49:38.079Z,3.25
2022-08-03T05:50:13.164Z,3.75
2022-08-03T05:50:44.511Z,3.35
2022-08-03T05:51:16.019Z,3.60
2022-08-03T05:51:47.426Z,2.78
2022-08-03T05:52:31.208Z,3.22
2022-08-03T05:53:02.963Z,4.13
2022-08-03T05:53:35.054Z,3.58
2022-08-03T05:54:06.415Z,3.50
2022-08-03T05:54:55.320Z,3.60
2022-08-03T05:55:29.007Z,3.00
2022-08-03T05:56:14.576Z,3.42
2022-08-03T05:56:46.930Z,3.40
2022-08-03T05:57:18.296Z,2.07
2022-08-03T05:57:49.696Z,3.78
2022-08-03T05:58:21.546Z,2.67
2022-08-03T05:59:54.616Z,2.78
2022-08-03T06:00:30.256Z,3.47
2022-08-03T06:01:02.584Z,2.78
2022-08-03T06:01:34.008Z,2.92
2022-08-03T06:02:05.573Z,2.95
2022-08-03T06:02:37.283Z,3.58
2022-08-03T06:03:08.603Z,3.20
2022-08-03T06:03:40.467Z,3.22
2022-08-03T06:04:12.018Z,2.47
2022-08-03T06:04:43.354Z,3.22
2022-08-03T06:06:03.503Z,2.85
2022-08-03T06:06:34.819Z,3.42
2022-08-03T06:07:06.157Z,3.15
2022-08-03T06:07:37.932Z,3.28
2022-08-03T06:08:09.308Z,3.92
2022-08-03T06:08:42.563Z,2.73
2022-08-03T06:09:13.952Z,3.45
2022-08-03T06:10:36.061Z,3.13
2022-08-03T06:10:56.284Z,3.13
2022-08-03T06:11:27.652Z,3.45
2022-08-03T06:11:59.003Z,2.80
2022-08-03T06:12:50.157Z,3.08
2022-08-03T06:13:21.991Z,4.07
2022-08-03T06:14:12.237Z,4.13
2022-08-03T06:14:43.604Z,2.97
2022-08-03T06:15:15.617Z,2.90
2022-08-03T06:15:46.944Z,2.67
2022-08-03T06:16:18.331Z,2.55
2022-08-03T06:16:49.676Z,2.63
2022-08-03T06:17:21.018Z,3.33
2022-08-03T06:17:52.694Z,3.30
2022-08-03T06:18:24.620Z,3.83
2022-08-03T06:18:55.987Z,3.90
2022-08-03T06:19:27.432Z,2.90
2022-08-03T06:19:58.807Z,3.25
2022-08-03T06:20:30.245Z,3.37
2022-08-03T06:21:14.477Z,3.60
2022-08-03T06:22:05.900Z,2.97
2022-08-03T06:22:37.247Z,3.65
2022-08-03T06:23:22.428Z,4.00
2022-08-03T06:24:12.664Z,3.83
2022-08-03T06:24:53.544Z,3.10
2022-08-03T06:25:25.930Z,3.05
2022-08-03T06:25:57.413Z,3.35
2022-08-03T06:26:28.849Z,3.03
2022-08-03T06:27:00.415Z,3.00
2022-08-03T06:27:37.319Z,2.67
2022-08-03T06:28:15.013Z,2.47
2022-08-03T06:29:13.794Z,3.30
2022-08-03T06:29:45.168Z,3.63
2022-08-03T06:30:21.048Z,3.75
2022-08-03T06:30:52.707Z,3.03
2022-08-03T06:31:33.018Z,3.30
2022-08-03T06:32:05.513Z,4.22
2022-08-03T06:32:38.099Z,3.60
2022-08-03T06:34:31.243Z,3.40
2022-08-03T06:34:32.542Z,3.33
2022-08-03T06:35:08.512Z,3.47
2022-08-03T06:35:40.483Z,3.88
2022-08-03T06:36:13.887Z,3.40
2022-08-03T06:36:45.328Z,3.78
2022-08-03T06:37:16.711Z,3.42
2022-08-03T06:37:50.254Z,3.53
2022-08-03T06:38:21.871Z,3.63
2022-08-03T06:38:53.196Z,3.00
2022-08-03T06:39:24.526Z,3.33
2022-08-03T06:39:55.918Z,3.40
2022-08-03T06:40:31.304Z,3.88
2022-08-03T06:41:02.739Z,3.78
2022-08-03T06:41:38.203Z,3.13
2022-08-03T06:42:16.175Z,2.88
2022-08-03T06:42:47.665Z,4.00
2022-08-03T06:43:21.662Z,3.42
2022-08-03T06:44:03.031Z,3.78
2022-08-03T06:44:37.535Z,3.53
2022-08-03T06:45:09.721Z,3.50
2022-08-03T06:45:41.836Z,3.58
2022-08-03T06:46:13.273Z,3.13
2022-08-03T06:46:44.707Z,3.35
2022-08-03T06:47:16.273Z,3.22
2022-08-03T06:47:48.022Z,3.55
2022-08-03T06:48:39.393Z,3.13
2022-08-03T06:49:16.111Z,2.95
2022-08-03T06:50:16.485Z,3.22
2022-08-03T06:50:41.632Z,3.00
2022-08-03T06:51:17.359Z,3.07
2022-08-03T06:52:03.277Z,4.22
2022-08-03T06:52:37.692Z,3.67
2022-08-03T06:53:19.762Z,3.88
2022-08-03T06:53:52.735Z,3.85
2022-08-03T06:54:24.738Z,3.60
2022-08-03T06:54:56.525Z,3.33
2022-08-03T06:55:28.440Z,3.17
2022-08-03T06:56:00.246Z,3.53
2022-08-03T06:56:31.817Z,3.35
2022-08-03T06:57:03.781Z,3.67
2022-08-03T06:57:35.313Z,3.40
2022-08-03T06:58:06.816Z,4.60
2022-08-03T06:58:38.459Z,3.67
2022-08-03T07:00:07.445Z,3.45
2022-08-03T07:00:08.644Z,3.28
2022-08-03T07:01:02.255Z,3.22
2022-08-03T07:01:34.323Z,2.90
2022-08-03T07:02:09.810Z,4.00
2022-08-03T07:02:41.621Z,3.38
2022-08-03T07:03:13.367Z,3.03
2022-08-03T07:03:52.059Z,2.97
2022-08-03T07:04:24.223Z,4.95
2022-08-03T07:04:58.945Z,3.10
2022-08-03T07:05:33.612Z,3.83
2022-08-03T07:06:05.450Z,3.40
2022-08-03T07:06:38.310Z,3.90
2022-08-03T07:07:09.945Z,3.08
2022-08-03T07:07:44.721Z,3.42
2022-08-03T07:08:19.452Z,4.32
2022-08-03T07:09:08.441Z,2.93
2022-08-03T07:09:40.124Z,3.20
2022-08-03T07:10:13.516Z,2.90
2022-08-03T07:11:37.290Z,3.03
2022-08-03T07:12:58.034Z,3.03
2022-08-03T07:13:29.700Z,3.08
2022-08-03T07:14:01.348Z,4.20
2022-08-03T07:14:51.761Z,3.05
2022-08-03T07:15:53.970Z,2.70
2022-08-03T07:16:15.026Z,4.13
2022-08-03T07:16:46.642Z,2.63
2022-08-03T07:18:08.362Z,2.25
2022-08-03T07:18:58.174Z,3.30
2022-08-03T07:19:29.792Z,2.97
2022-08-03T07:20:03.504Z,2.85
2022-08-03T07:20:35.112Z,3.20
2022-08-03T07:21:09.017Z,3.08
2022-08-03T07:21:40.727Z,2.70
2022-08-03T07:22:30.867Z,2.90
2022-08-03T07:23:02.328Z,3.13
2022-08-03T07:23:34.745Z,3.08
2022-08-03T07:24:06.281Z,3.75
2022-08-03T07:24:38.052Z,2.85
2022-08-03T07:25:10.155Z,2.90
2022-08-03T07:25:41.808Z,3.03
2022-08-03T07:26:16.121Z,3.00
2022-08-03T07:26:47.545Z,2.67
2022-08-03T07:27:19.915Z,3.03
2022-08-03T07:27:51.890Z,3.45
2022-08-03T07:28:42.393Z,3.00
2022-08-03T07:29:15.496Z,3.50
2022-08-03T07:29:47.026Z,3.65
2022-08-03T07:30:18.563Z,2.90
2022-08-03T07:30:50.214Z,2.72
2022-08-03T07:31:21.639Z,2.90
2022-08-03T07:31:53.093Z,2.83
2022-08-03T07:32:25.081Z,2.58
2022-08-03T07:32:56.639Z,2.87
2022-08-03T07:33:46.529Z,3.75
2022-08-03T07:34:18.039Z,3.35
2022-08-03T07:34:49.443Z,3.83
2022-08-03T07:35:24.924Z,3.45
2022-08-03T07:36:15.607Z,4.32
2022-08-03T07:36:47.073Z,3.40
2022-08-03T07:37:18.561Z,2.70
2022-08-03T07:37:54.303Z,3.08
2022-08-03T07:38:27.634Z,2.97
2022-08-03T07:38:59.084Z,2.90
2022-08-03T07:39:30.754Z,3.13
2022-08-03T07:40:04.186Z,3.00
2022-08-03T07:40:36.043Z,3.45
2022-08-03T07:41:07.510Z,3.70
2022-08-03T07:41:39.149Z,4.30
2022-08-03T07:42:13.417Z,3.00
2022-08-03T07:42:44.881Z,2.70
2022-08-03T07:43:17.532Z,2.65
2022-08-03T07:43:49.132Z,2.90
2022-08-03T07:44:20.838Z,3.03
2022-08-03T07:44:52.376Z,2.72
2022-08-03T07:45:24.562Z,3.35
2022-08-03T07:45:56.076Z,3.55
2022-08-03T07:46:27.570Z,3.75
2022-08-03T07:47:53.331Z,2.00
2022-08-03T07:48:25.656Z,2.72
2022-08-03T07:48:57.275Z,2.53
2022-08-03T07:49:29.010Z,3.03
2022-08-03T07:50:00.742Z,3.13
2022-08-03T07:50:32.333Z,2.88
2022-08-03T07:51:05.779Z,3.53
2022-08-03T07:51:37.879Z,3.47
2022-08-03T07:52:51.309Z,3.70
2022-08-03T07:53:22.810Z,3.03
2022-08-03T07:53:57.487Z,2.95
2022-08-03T07:54:29.256Z,3.15
2022-08-03T07:55:00.870Z,2.80
2022-08-03T07:55:32.359Z,2.75
2022-08-03T07:56:04.004Z,2.40
2022-08-03T07:56:43.154Z,3.17
2022-08-03T07:57:14.704Z,4.03
2022-08-03T07:57:46.905Z,3.00
2022-08-03T07:58:24.157Z,3.25
2022-08-03T07:58:58.869Z,2.80
2022-08-03T07:59:30.449Z,2.55
2022-08-03T08:00:22.233Z,3.17
2022-08-03T08:00:53.944Z,3.00
2022-08-03T08:01:32.769Z,2.53
2022-08-03T08:02:06.996Z,2.50
2022-08-03T08:02:38.799Z,2.40
2022-08-03T08:03:11.436Z,2.60
2022-08-03T08:03:53.306Z,3.65
2022-08-03T08:04:26.650Z,3.00
2022-08-03T08:05:02.153Z,2.90
2022-08-03T08:05:37.537Z,2.83
2022-08-03T08:06:09.220Z,2.67
2022-08-03T08:06:40.935Z,3.35
2022-08-03T08:07:12.414Z,2.47
2022-08-03T08:08:02.169Z,2.70
2022-08-03T08:08:33.554Z,2.90
2022-08-03T08:09:04.934Z,2.53
2022-08-03T08:09:36.550Z,2.78
2022-08-03T08:10:10.093Z,3.45
2022-08-03T08:10:58.238Z,2.45
2022-08-03T08:11:34.810Z,2.55
2022-08-03T08:12:30.501Z,2.67
2022-08-03T08:13:03.536Z,3.10
2022-08-03T08:13:38.196Z,4.15
2022-08-03T08:14:15.543Z,2.67
2022-08-03T08:14:51.704Z,2.60
2022-08-03T08:15:23.642Z,2.88
2022-08-03T08:15:55.129Z,3.25
2022-08-03T08:16:26.952Z,3.10
2022-08-03T08:16:58.427Z,2.90
2022-08-03T08:17:48.645Z,3.05
2022-08-03T08:18:20.290Z,3.13
2022-08-03T08:18:51.718Z,2.85
2022-08-03T08:19:23.317Z,2.50
2022-08-03T08:19:56.916Z,4.33
2022-08-03T08:20:38.808Z,3.38
2022-08-03T08:21:15.396Z,2.95
2022-08-03T08:21:53.478Z,3.80
2022-08-03T08:22:36.143Z,3.15
2022-08-03T08:23:32.606Z,3.55
2022-08-03T08:24:20.543Z,4.40
2022-08-03T08:24:55.045Z,2.55
2022-08-03T08:25:33.044Z,3.38
2022-08-03T08:26:07.513Z,2.78
2022-08-03T08:26:39.463Z,3.07
2022-08-03T08:27:16.219Z,3.40
2022-08-03T08:28:29.133Z,2.45
2022-08-03T08:28:44.152Z,2.70
2022-08-03T08:29:18.260Z,2.95
2022-08-03T08:29:53.098Z,2.78
2022-08-03T08:30:28.396Z,2.67
2022-08-03T08:31:01.701Z,3.28